sensor_id;sensor_type;location;lat;lon;timestamp;P1;durP1;ratioP1;P2;durP2;ratioP2
10605;SDS011;5350;42.698;23.148;2023-03-24T00:00:23;15.40;;;11.43;;
10605;SDS011;5350;42.698;23.148;2023-03-24T00:02:50;13.53;;;10.13;;
10605;SDS011;5350;42.698;23.148;2023-03-24T00:05:17;15.33;;;11.20;;
10605;SDS011;5350;42.698;23.148;2023-03-24T00:07:45;14.57;;;10.40;;
10605;SDS011;5350;42.698;23.148;2023-03-24T00:10:15;14.30;;;10.57;;
10605;SDS011;5350;42.698;23.148;2023-03-24T00:12:44;15.83;;;11.33;;
10605;SDS011;5350;42.698;23.148;2023-03-24T00:15:12;14.97;;;10.37;;
10605;SDS011;5350;42.698;23.148;2023-03-24T00:17:41;14.37;;;11.23;;
10605;SDS011;5350;42.698;23.148;2023-03-24T00:20:08;14.97;;;10.90;;
10605;SDS011;5350;42.698;23.148;2023-03-24T00:22:39;15.67;;;10.63;;
10605;SDS011;5350;42.698;23.148;2023-03-24T00:25:07;14.73;;;10.73;;
10605;SDS011;5350;42.698;23.148;2023-03-24T00:27:36;18.17;;;11.13;;
10605;SDS011;5350;42.698;23.148;2023-03-24T00:30:04;16.20;;;11.63;;
10605;SDS011;5350;42.698;23.148;2023-03-24T00:32:32;16.57;;;12.03;;
10605;SDS011;5350;42.698;23.148;2023-03-24T00:35:01;16.00;;;11.53;;
10605;SDS011;5350;42.698;23.148;2023-03-24T00:37:28;15.40;;;12.03;;
10605;SDS011;5350;42.698;23.148;2023-03-24T00:39:55;15.73;;;12.23;;
10605;SDS011;5350;42.698;23.148;2023-03-24T00:42:23;17.00;;;11.33;;
10605;SDS011;5350;42.698;23.148;2023-03-24T00:44:52;14.50;;;11.00;;
10605;SDS011;5350;42.698;23.148;2023-03-24T00:47:19;16.83;;;11.43;;
10605;SDS011;5350;42.698;23.148;2023-03-24T00:49:50;16.00;;;11.63;;
10605;SDS011;5350;42.698;23.148;2023-03-24T00:52:19;15.20;;;11.20;;
10605;SDS011;5350;42.698;23.148;2023-03-24T00:54:48;17.60;;;12.17;;
10605;SDS011;5350;42.698;23.148;2023-03-24T00:57:16;14.20;;;11.17;;
10605;SDS011;5350;42.698;23.148;2023-03-24T00:59:46;14.47;;;11.63;;
10605;SDS011;5350;42.698;23.148;2023-03-24T01:02:14;18.43;;;12.83;;
10605;SDS011;5350;42.698;23.148;2023-03-24T01:04:43;14.57;;;10.80;;
10605;SDS011;5350;42.698;23.148;2023-03-24T01:07:11;15.50;;;10.53;;
10605;SDS011;5350;42.698;23.148;2023-03-24T01:09:42;13.57;;;10.73;;
10605;SDS011;5350;42.698;23.148;2023-03-24T01:12:16;17.60;;;11.20;;
10605;SDS011;5350;42.698;23.148;2023-03-24T01:14:43;16.03;;;11.60;;
10605;SDS011;5350;42.698;23.148;2023-03-24T01:17:10;14.47;;;11.37;;
10605;SDS011;5350;42.698;23.148;2023-03-24T01:19:38;15.90;;;12.13;;
10605;SDS011;5350;42.698;23.148;2023-03-24T01:22:06;14.97;;;10.33;;
10605;SDS011;5350;42.698;23.148;2023-03-24T01:24:35;15.57;;;10.80;;
10605;SDS011;5350;42.698;23.148;2023-03-24T01:27:02;14.30;;;11.53;;
10605;SDS011;5350;42.698;23.148;2023-03-24T01:29:28;14.47;;;11.03;;
10605;SDS011;5350;42.698;23.148;2023-03-24T01:31:56;13.60;;;10.03;;
10605;SDS011;5350;42.698;23.148;2023-03-24T01:34:23;15.03;;;10.97;;
10605;SDS011;5350;42.698;23.148;2023-03-24T01:36:52;15.53;;;10.67;;
10605;SDS011;5350;42.698;23.148;2023-03-24T01:39:18;14.77;;;11.40;;
10605;SDS011;5350;42.698;23.148;2023-03-24T01:41:45;14.03;;;10.43;;
10605;SDS011;5350;42.698;23.148;2023-03-24T01:44:26;16.43;;;10.87;;
10605;SDS011;5350;42.698;23.148;2023-03-24T01:46:55;14.97;;;10.87;;
10605;SDS011;5350;42.698;23.148;2023-03-24T01:49:23;16.83;;;11.00;;
10605;SDS011;5350;42.698;23.148;2023-03-24T01:51:55;15.70;;;11.20;;
10605;SDS011;5350;42.698;23.148;2023-03-24T01:54:25;15.67;;;11.20;;
10605;SDS011;5350;42.698;23.148;2023-03-24T01:56:56;16.67;;;12.37;;
10605;SDS011;5350;42.698;23.148;2023-03-24T01:59:29;17.53;;;11.70;;
10605;SDS011;5350;42.698;23.148;2023-03-24T02:02:00;17.23;;;11.70;;
10605;SDS011;5350;42.698;23.148;2023-03-24T02:04:29;15.97;;;11.30;;
10605;SDS011;5350;42.698;23.148;2023-03-24T02:07:00;17.27;;;13.13;;
10605;SDS011;5350;42.698;23.148;2023-03-24T02:09:33;17.03;;;12.93;;
10605;SDS011;5350;42.698;23.148;2023-03-24T02:12:00;16.93;;;12.47;;
10605;SDS011;5350;42.698;23.148;2023-03-24T02:14:27;19.30;;;12.87;;
10605;SDS011;5350;42.698;23.148;2023-03-24T02:17:05;15.90;;;11.90;;
10605;SDS011;5350;42.698;23.148;2023-03-24T02:19:45;17.13;;;11.73;;
10605;SDS011;5350;42.698;23.148;2023-03-24T02:26:14;13.97;;;10.33;;
10605;SDS011;5350;42.698;23.148;2023-03-24T02:29:09;14.63;;;10.53;;
10605;SDS011;5350;42.698;23.148;2023-03-24T02:32:08;19.20;;;11.37;;
10605;SDS011;5350;42.698;23.148;2023-03-24T02:35:08;14.03;;;11.43;;
10605;SDS011;5350;42.698;23.148;2023-03-24T02:40:57;15.93;;;12.23;;
10605;SDS011;5350;42.698;23.148;2023-03-24T02:43:36;16.27;;;12.10;;
10605;SDS011;5350;42.698;23.148;2023-03-24T02:46:14;122.67;;;75.70;;
10605;SDS011;5350;42.698;23.148;2023-03-24T02:51:43;15.87;;;12.10;;
10605;SDS011;5350;42.698;23.148;2023-03-24T02:54:17;19.37;;;12.70;;
10605;SDS011;5350;42.698;23.148;2023-03-24T02:56:51;20.07;;;11.57;;
10605;SDS011;5350;42.698;23.148;2023-03-24T02:59:24;17.00;;;11.50;;
10605;SDS011;5350;42.698;23.148;2023-03-24T03:01:57;17.33;;;12.63;;
10605;SDS011;5350;42.698;23.148;2023-03-24T03:04:27;23.43;;;14.47;;
10605;SDS011;5350;42.698;23.148;2023-03-24T03:06:58;18.60;;;12.67;;
10605;SDS011;5350;42.698;23.148;2023-03-24T03:09:30;17.30;;;12.77;;
10605;SDS011;5350;42.698;23.148;2023-03-24T03:12:02;24.67;;;16.17;;
10605;SDS011;5350;42.698;23.148;2023-03-24T03:14:31;19.20;;;14.13;;
10605;SDS011;5350;42.698;23.148;2023-03-24T03:17:04;25.00;;;14.83;;
10605;SDS011;5350;42.698;23.148;2023-03-24T03:19:33;19.77;;;13.63;;
10605;SDS011;5350;42.698;23.148;2023-03-24T03:22:04;20.17;;;14.40;;
10605;SDS011;5350;42.698;23.148;2023-03-24T03:24:34;22.70;;;15.43;;
10605;SDS011;5350;42.698;23.148;2023-03-24T03:27:07;24.37;;;16.20;;
10605;SDS011;5350;42.698;23.148;2023-03-24T03:29:39;27.00;;;18.30;;
10605;SDS011;5350;42.698;23.148;2023-03-24T03:32:10;25.87;;;17.87;;
10605;SDS011;5350;42.698;23.148;2023-03-24T03:34:44;30.07;;;19.73;;
10605;SDS011;5350;42.698;23.148;2023-03-24T03:37:18;30.33;;;18.73;;
10605;SDS011;5350;42.698;23.148;2023-03-24T03:39:52;28.77;;;19.57;;
10605;SDS011;5350;42.698;23.148;2023-03-24T03:42:24;27.53;;;18.57;;
10605;SDS011;5350;42.698;23.148;2023-03-24T03:44:51;30.07;;;19.03;;
10605;SDS011;5350;42.698;23.148;2023-03-24T03:47:18;35.00;;;19.80;;
10605;SDS011;5350;42.698;23.148;2023-03-24T03:49:47;28.13;;;20.03;;
10605;SDS011;5350;42.698;23.148;2023-03-24T03:52:15;34.80;;;21.03;;
10605;SDS011;5350;42.698;23.148;2023-03-24T03:54:42;31.07;;;19.07;;
10605;SDS011;5350;42.698;23.148;2023-03-24T03:57:10;32.83;;;20.47;;
10605;SDS011;5350;42.698;23.148;2023-03-24T03:59:40;31.60;;;18.90;;
10605;SDS011;5350;42.698;23.148;2023-03-24T04:02:11;32.83;;;18.87;;
10605;SDS011;5350;42.698;23.148;2023-03-24T04:05:00;29.53;;;17.43;;
10605;SDS011;5350;42.698;23.148;2023-03-24T04:07:42;27.77;;;17.07;;
10605;SDS011;5350;42.698;23.148;2023-03-24T04:10:28;30.20;;;17.87;;
10605;SDS011;5350;42.698;23.148;2023-03-24T04:13:08;25.63;;;14.93;;
10605;SDS011;5350;42.698;23.148;2023-03-24T04:15:47;30.53;;;16.03;;
10605;SDS011;5350;42.698;23.148;2023-03-24T04:18:25;27.07;;;15.50;;
10605;SDS011;5350;42.698;23.148;2023-03-24T04:23:54;24.87;;;14.80;;
10605;SDS011;5350;42.698;23.148;2023-03-24T04:26:33;25.17;;;13.97;;
10605;SDS011;5350;42.698;23.148;2023-03-24T04:29:08;24.77;;;13.87;;
10605;SDS011;5350;42.698;23.148;2023-03-24T04:31:43;21.03;;;13.40;;
10605;SDS011;5350;42.698;23.148;2023-03-24T04:34:18;26.00;;;14.70;;
10605;SDS011;5350;42.698;23.148;2023-03-24T04:36:50;27.00;;;14.00;;
10605;SDS011;5350;42.698;23.148;2023-03-24T04:39:22;26.30;;;14.57;;
10605;SDS011;5350;42.698;23.148;2023-03-24T04:41:53;27.27;;;15.70;;
10605;SDS011;5350;42.698;23.148;2023-03-24T04:44:21;32.07;;;20.60;;
10605;SDS011;5350;42.698;23.148;2023-03-24T04:46:51;26.70;;;15.30;;
10605;SDS011;5350;42.698;23.148;2023-03-24T04:49:22;24.67;;;14.43;;
10605;SDS011;5350;42.698;23.148;2023-03-24T04:51:49;26.07;;;15.33;;
10605;SDS011;5350;42.698;23.148;2023-03-24T04:54:16;23.67;;;14.97;;
10605;SDS011;5350;42.698;23.148;2023-03-24T04:56:44;27.43;;;14.80;;
10605;SDS011;5350;42.698;23.148;2023-03-24T04:59:13;24.47;;;15.30;;
10605;SDS011;5350;42.698;23.148;2023-03-24T05:01:40;24.23;;;15.30;;
10605;SDS011;5350;42.698;23.148;2023-03-24T05:04:15;31.57;;;16.97;;
10605;SDS011;5350;42.698;23.148;2023-03-24T05:06:42;35.07;;;17.90;;
10605;SDS011;5350;42.698;23.148;2023-03-24T05:09:11;25.53;;;16.33;;
10605;SDS011;5350;42.698;23.148;2023-03-24T05:11:39;26.77;;;15.93;;
10605;SDS011;5350;42.698;23.148;2023-03-24T05:14:06;26.30;;;14.50;;
10605;SDS011;5350;42.698;23.148;2023-03-24T05:16:32;24.60;;;15.23;;
10605;SDS011;5350;42.698;23.148;2023-03-24T05:18:59;24.40;;;14.60;;
10605;SDS011;5350;42.698;23.148;2023-03-24T05:21:28;29.97;;;16.17;;
10605;SDS011;5350;42.698;23.148;2023-03-24T05:23:55;27.80;;;16.97;;
10605;SDS011;5350;42.698;23.148;2023-03-24T05:26:22;24.10;;;15.27;;
10605;SDS011;5350;42.698;23.148;2023-03-24T05:28:50;28.27;;;15.50;;
10605;SDS011;5350;42.698;23.148;2023-03-24T05:31:17;22.07;;;15.17;;
10605;SDS011;5350;42.698;23.148;2023-03-24T05:33:44;24.47;;;15.27;;
10605;SDS011;5350;42.698;23.148;2023-03-24T05:36:10;27.70;;;15.00;;
10605;SDS011;5350;42.698;23.148;2023-03-24T05:38:39;25.40;;;15.63;;
10605;SDS011;5350;42.698;23.148;2023-03-24T05:41:06;23.10;;;15.87;;
10605;SDS011;5350;42.698;23.148;2023-03-24T05:43:33;24.90;;;16.20;;
10605;SDS011;5350;42.698;23.148;2023-03-24T05:46:00;25.70;;;15.40;;
10605;SDS011;5350;42.698;23.148;2023-03-24T05:48:26;24.20;;;15.53;;
10605;SDS011;5350;42.698;23.148;2023-03-24T05:50:53;23.73;;;15.77;;
10605;SDS011;5350;42.698;23.148;2023-03-24T05:53:20;28.47;;;16.70;;
10605;SDS011;5350;42.698;23.148;2023-03-24T05:55:48;26.87;;;16.67;;
10605;SDS011;5350;42.698;23.148;2023-03-24T05:58:17;30.10;;;18.47;;
10605;SDS011;5350;42.698;23.148;2023-03-24T06:00:45;28.13;;;17.90;;
10605;SDS011;5350;42.698;23.148;2023-03-24T06:03:12;26.10;;;17.00;;
10605;SDS011;5350;42.698;23.148;2023-03-24T06:05:41;24.33;;;16.10;;
10605;SDS011;5350;42.698;23.148;2023-03-24T06:08:10;23.40;;;15.47;;
10605;SDS011;5350;42.698;23.148;2023-03-24T06:10:37;25.97;;;16.70;;
10605;SDS011;5350;42.698;23.148;2023-03-24T06:13:06;22.83;;;15.63;;
10605;SDS011;5350;42.698;23.148;2023-03-24T06:15:33;23.07;;;14.53;;
10605;SDS011;5350;42.698;23.148;2023-03-24T06:18:00;20.80;;;14.70;;
10605;SDS011;5350;42.698;23.148;2023-03-24T06:20:29;21.80;;;14.17;;
10605;SDS011;5350;42.698;23.148;2023-03-24T06:22:55;19.97;;;14.40;;
10605;SDS011;5350;42.698;23.148;2023-03-24T06:25:23;23.47;;;15.53;;
10605;SDS011;5350;42.698;23.148;2023-03-24T06:27:52;21.17;;;14.50;;
10605;SDS011;5350;42.698;23.148;2023-03-24T06:30:20;21.97;;;14.20;;
10605;SDS011;5350;42.698;23.148;2023-03-24T06:32:47;18.53;;;13.73;;
10605;SDS011;5350;42.698;23.148;2023-03-24T06:35:15;20.50;;;13.47;;
10605;SDS011;5350;42.698;23.148;2023-03-24T06:37:42;21.07;;;14.07;;
10605;SDS011;5350;42.698;23.148;2023-03-24T06:40:10;21.60;;;14.80;;
10605;SDS011;5350;42.698;23.148;2023-03-24T06:42:40;25.50;;;17.23;;
10605;SDS011;5350;42.698;23.148;2023-03-24T06:45:07;23.20;;;15.93;;
10605;SDS011;5350;42.698;23.148;2023-03-24T06:47:36;28.07;;;15.70;;
10605;SDS011;5350;42.698;23.148;2023-03-24T06:50:03;21.40;;;15.53;;
10605;SDS011;5350;42.698;23.148;2023-03-24T06:52:31;23.57;;;16.13;;
10605;SDS011;5350;42.698;23.148;2023-03-24T06:54:58;26.20;;;15.43;;
10605;SDS011;5350;42.698;23.148;2023-03-24T06:57:24;22.10;;;15.23;;
10605;SDS011;5350;42.698;23.148;2023-03-24T06:59:53;22.33;;;15.30;;
10605;SDS011;5350;42.698;23.148;2023-03-24T07:02:19;20.13;;;15.40;;
10605;SDS011;5350;42.698;23.148;2023-03-24T07:04:48;20.27;;;14.63;;
10605;SDS011;5350;42.698;23.148;2023-03-24T07:07:17;21.83;;;15.47;;
10605;SDS011;5350;42.698;23.148;2023-03-24T07:09:47;21.00;;;15.93;;
10605;SDS011;5350;42.698;23.148;2023-03-24T07:12:15;22.43;;;16.27;;
10605;SDS011;5350;42.698;23.148;2023-03-24T07:14:42;23.60;;;15.47;;
10605;SDS011;5350;42.698;23.148;2023-03-24T07:17:08;21.67;;;14.97;;
10605;SDS011;5350;42.698;23.148;2023-03-24T07:19:35;19.93;;;15.60;;
10605;SDS011;5350;42.698;23.148;2023-03-24T07:22:03;20.67;;;14.80;;
10605;SDS011;5350;42.698;23.148;2023-03-24T07:24:32;20.50;;;13.93;;
10605;SDS011;5350;42.698;23.148;2023-03-24T07:26:59;21.47;;;15.07;;
10605;SDS011;5350;42.698;23.148;2023-03-24T07:29:26;22.33;;;15.03;;
10605;SDS011;5350;42.698;23.148;2023-03-24T07:31:53;18.20;;;13.90;;
10605;SDS011;5350;42.698;23.148;2023-03-24T07:34:22;21.00;;;14.50;;
10605;SDS011;5350;42.698;23.148;2023-03-24T07:36:49;20.40;;;13.77;;
10605;SDS011;5350;42.698;23.148;2023-03-24T07:39:17;20.03;;;13.53;;
10605;SDS011;5350;42.698;23.148;2023-03-24T07:41:45;19.60;;;14.17;;
10605;SDS011;5350;42.698;23.148;2023-03-24T07:44:12;19.20;;;14.27;;
10605;SDS011;5350;42.698;23.148;2023-03-24T07:46:39;19.33;;;13.90;;
10605;SDS011;5350;42.698;23.148;2023-03-24T07:49:06;19.80;;;13.93;;
10605;SDS011;5350;42.698;23.148;2023-03-24T07:51:33;17.93;;;14.37;;
10605;SDS011;5350;42.698;23.148;2023-03-24T07:53:59;19.33;;;14.40;;
10605;SDS011;5350;42.698;23.148;2023-03-24T07:56:28;17.33;;;13.47;;
10605;SDS011;5350;42.698;23.148;2023-03-24T07:58:54;17.73;;;13.93;;
10605;SDS011;5350;42.698;23.148;2023-03-24T08:01:22;18.25;;;13.55;;
10605;SDS011;5350;42.698;23.148;2023-03-24T08:03:48;21.42;;;15.95;;
10605;SDS011;5350;42.698;23.148;2023-03-24T08:06:18;21.60;;;14.82;;
10605;SDS011;5350;42.698;23.148;2023-03-24T08:08:45;19.37;;;14.80;;
10605;SDS011;5350;42.698;23.148;2023-03-24T08:11:12;18.77;;;15.13;;
10605;SDS011;5350;42.698;23.148;2023-03-24T08:13:40;20.42;;;15.57;;
10605;SDS011;5350;42.698;23.148;2023-03-24T08:16:07;21.75;;;16.35;;
10605;SDS011;5350;42.698;23.148;2023-03-24T08:18:34;25.42;;;17.23;;
10605;SDS011;5350;42.698;23.148;2023-03-24T08:21:03;22.02;;;14.95;;
10605;SDS011;5350;42.698;23.148;2023-03-24T08:23:30;20.30;;;16.27;;
10605;SDS011;5350;42.698;23.148;2023-03-24T08:25:57;22.45;;;16.50;;
10605;SDS011;5350;42.698;23.148;2023-03-24T08:28:25;21.25;;;15.65;;
10605;SDS011;5350;42.698;23.148;2023-03-24T08:30:53;17.75;;;15.85;;
10605;SDS011;5350;42.698;23.148;2023-03-24T08:33:20;20.63;;;17.23;;
10605;SDS011;5350;42.698;23.148;2023-03-24T08:35:47;18.85;;;15.23;;
10605;SDS011;5350;42.698;23.148;2023-03-24T08:38:13;20.73;;;14.65;;
10605;SDS011;5350;42.698;23.148;2023-03-24T08:40:40;22.08;;;14.75;;
10605;SDS011;5350;42.698;23.148;2023-03-24T08:43:09;18.55;;;14.40;;
10605;SDS011;5350;42.698;23.148;2023-03-24T08:45:39;22.00;;;14.73;;
10605;SDS011;5350;42.698;23.148;2023-03-24T08:48:08;20.35;;;13.45;;
10605;SDS011;5350;42.698;23.148;2023-03-24T08:50:36;15.15;;;13.45;;
10605;SDS011;5350;42.698;23.148;2023-03-24T08:53:05;18.33;;;14.77;;
10605;SDS011;5350;42.698;23.148;2023-03-24T08:55:32;18.17;;;14.98;;
10605;SDS011;5350;42.698;23.148;2023-03-24T08:57:59;20.55;;;15.18;;
10605;SDS011;5350;42.698;23.148;2023-03-24T09:00:26;18.10;;;15.85;;
10605;SDS011;5350;42.698;23.148;2023-03-24T09:02:54;21.25;;;14.93;;
10605;SDS011;5350;42.698;23.148;2023-03-24T09:05:23;20.15;;;15.18;;
10605;SDS011;5350;42.698;23.148;2023-03-24T09:07:51;17.83;;;15.15;;
10605;SDS011;5350;42.698;23.148;2023-03-24T09:10:18;19.08;;;16.05;;
10605;SDS011;5350;42.698;23.148;2023-03-24T09:12:46;18.02;;;13.18;;
10605;SDS011;5350;42.698;23.148;2023-03-24T09:15:13;16.25;;;14.57;;
10605;SDS011;5350;42.698;23.148;2023-03-24T09:17:40;19.30;;;14.35;;
10605;SDS011;5350;42.698;23.148;2023-03-24T09:20:08;19.92;;;15.13;;
10605;SDS011;5350;42.698;23.148;2023-03-24T09:22:38;18.75;;;14.25;;
10605;SDS011;5350;42.698;23.148;2023-03-24T09:25:06;17.30;;;13.88;;
10605;SDS011;5350;42.698;23.148;2023-03-24T09:27:34;19.65;;;14.15;;
10605;SDS011;5350;42.698;23.148;2023-03-24T09:30:01;17.35;;;13.32;;
10605;SDS011;5350;42.698;23.148;2023-03-24T09:32:28;14.02;;;11.48;;
10605;SDS011;5350;42.698;23.148;2023-03-24T09:34:55;16.70;;;13.80;;
10605;SDS011;5350;42.698;23.148;2023-03-24T09:37:22;12.50;;;11.02;;
10605;SDS011;5350;42.698;23.148;2023-03-24T09:39:50;15.50;;;10.60;;
10605;SDS011;5350;42.698;23.148;2023-03-24T09:42:19;16.30;;;11.30;;
10605;SDS011;5350;42.698;23.148;2023-03-24T09:44:49;12.85;;;9.32;;
10605;SDS011;5350;42.698;23.148;2023-03-24T09:47:22;11.38;;;9.00;;
10605;SDS011;5350;42.698;23.148;2023-03-24T09:49:53;11.23;;;7.53;;
10605;SDS011;5350;42.698;23.148;2023-03-24T09:52:23;10.57;;;6.10;;
10605;SDS011;5350;42.698;23.148;2023-03-24T09:54:59;8.82;;;7.28;;
10605;SDS011;5350;42.698;23.148;2023-03-24T09:57:27;5.90;;;5.30;;
10605;SDS011;5350;42.698;23.148;2023-03-24T10:00:00;6.93;;;4.43;;
10605;SDS011;5350;42.698;23.148;2023-03-24T10:02:28;7.93;;;5.70;;
10605;SDS011;5350;42.698;23.148;2023-03-24T10:04:55;6.72;;;6.13;;
10605;SDS011;5350;42.698;23.148;2023-03-24T10:07:24;9.13;;;5.95;;
10605;SDS011;5350;42.698;23.148;2023-03-24T10:09:59;7.18;;;6.32;;
10605;SDS011;5350;42.698;23.148;2023-03-24T10:12:29;4.53;;;4.10;;
10605;SDS011;5350;42.698;23.148;2023-03-24T10:15:03;6.50;;;5.75;;
10605;SDS011;5350;42.698;23.148;2023-03-24T10:17:42;6.28;;;5.55;;
10605;SDS011;5350;42.698;23.148;2023-03-24T10:20:19;7.40;;;5.82;;
10605;SDS011;5350;42.698;23.148;2023-03-24T10:22:56;6.38;;;5.78;;
10605;SDS011;5350;42.698;23.148;2023-03-24T10:25:32;7.20;;;6.00;;
10605;SDS011;5350;42.698;23.148;2023-03-24T10:28:09;8.15;;;6.18;;
10605;SDS011;5350;42.698;23.148;2023-03-24T10:30:41;6.82;;;5.72;;
10605;SDS011;5350;42.698;23.148;2023-03-24T10:33:10;7.90;;;5.80;;
10605;SDS011;5350;42.698;23.148;2023-03-24T10:35:38;5.95;;;5.22;;
10605;SDS011;5350;42.698;23.148;2023-03-24T10:38:12;6.70;;;5.82;;
10605;SDS011;5350;42.698;23.148;2023-03-24T10:40:44;7.10;;;6.20;;
10605;SDS011;5350;42.698;23.148;2023-03-24T10:43:11;8.70;;;6.57;;
10605;SDS011;5350;42.698;23.148;2023-03-24T10:45:39;7.30;;;5.85;;
10605;SDS011;5350;42.698;23.148;2023-03-24T10:48:09;6.82;;;5.55;;
10605;SDS011;5350;42.698;23.148;2023-03-24T10:50:40;6.88;;;5.53;;
10605;SDS011;5350;42.698;23.148;2023-03-24T10:53:10;6.90;;;6.10;;
10605;SDS011;5350;42.698;23.148;2023-03-24T10:55:44;9.30;;;6.45;;
10605;SDS011;5350;42.698;23.148;2023-03-24T10:58:14;7.38;;;5.90;;
10605;SDS011;5350;42.698;23.148;2023-03-24T11:00:45;5.93;;;5.10;;
10605;SDS011;5350;42.698;23.148;2023-03-24T11:03:13;8.13;;;5.25;;
10605;SDS011;5350;42.698;23.148;2023-03-24T11:05:42;7.40;;;5.60;;
10605;SDS011;5350;42.698;23.148;2023-03-24T11:08:17;4.93;;;4.43;;
10605;SDS011;5350;42.698;23.148;2023-03-24T11:10:52;4.93;;;4.38;;
10605;SDS011;5350;42.698;23.148;2023-03-24T11:13:25;6.95;;;5.32;;
10605;SDS011;5350;42.698;23.148;2023-03-24T11:15:55;11.93;;;5.68;;
10605;SDS011;5350;42.698;23.148;2023-03-24T11:18:30;5.60;;;5.05;;
10605;SDS011;5350;42.698;23.148;2023-03-24T11:20:57;5.25;;;4.75;;
10605;SDS011;5350;42.698;23.148;2023-03-24T11:23:28;7.07;;;5.00;;
10605;SDS011;5350;42.698;23.148;2023-03-24T11:26:03;5.32;;;4.57;;
10605;SDS011;5350;42.698;23.148;2023-03-24T11:28:34;9.32;;;4.45;;
10605;SDS011;5350;42.698;23.148;2023-03-24T11:31:05;5.07;;;4.38;;
10605;SDS011;5350;42.698;23.148;2023-03-24T11:33:33;4.32;;;3.65;;
10605;SDS011;5350;42.698;23.148;2023-03-24T11:36:11;4.57;;;4.00;;
10605;SDS011;5350;42.698;23.148;2023-03-24T11:39:15;6.68;;;4.35;;
10605;SDS011;5350;42.698;23.148;2023-03-24T11:44:42;7.10;;;4.43;;
10605;SDS011;5350;42.698;23.148;2023-03-24T11:47:12;4.13;;;3.72;;
10605;SDS011;5350;42.698;23.148;2023-03-24T11:49:48;4.38;;;3.97;;
10605;SDS011;5350;42.698;23.148;2023-03-24T11:52:19;5.40;;;4.10;;
10605;SDS011;5350;42.698;23.148;2023-03-24T11:54:48;6.13;;;3.95;;
10605;SDS011;5350;42.698;23.148;2023-03-24T11:57:17;5.43;;;3.65;;
10605;SDS011;5350;42.698;23.148;2023-03-24T11:59:58;4.95;;;3.80;;
10605;SDS011;5350;42.698;23.148;2023-03-24T12:02:37;5.88;;;4.00;;
10605;SDS011;5350;42.698;23.148;2023-03-24T12:05:17;3.85;;;3.55;;
10605;SDS011;5350;42.698;23.148;2023-03-24T12:07:57;4.35;;;3.95;;
10605;SDS011;5350;42.698;23.148;2023-03-24T12:10:38;4.78;;;4.13;;
10605;SDS011;5350;42.698;23.148;2023-03-24T12:13:15;6.00;;;5.40;;
10605;SDS011;5350;42.698;23.148;2023-03-24T12:15:52;7.20;;;3.70;;
10605;SDS011;5350;42.698;23.148;2023-03-24T12:18:28;4.30;;;3.60;;
10605;SDS011;5350;42.698;23.148;2023-03-24T12:21:15;4.10;;;3.75;;
10605;SDS011;5350;42.698;23.148;2023-03-24T12:23:53;4.00;;;3.38;;
10605;SDS011;5350;42.698;23.148;2023-03-24T12:26:23;4.13;;;3.50;;
10605;SDS011;5350;42.698;23.148;2023-03-24T12:29:00;4.07;;;3.67;;
10605;SDS011;5350;42.698;23.148;2023-03-24T12:31:53;4.47;;;3.42;;
10605;SDS011;5350;42.698;23.148;2023-03-24T12:37:22;5.32;;;4.20;;
10605;SDS011;5350;42.698;23.148;2023-03-24T12:39:58;4.72;;;3.90;;
10605;SDS011;5350;42.698;23.148;2023-03-24T12:42:41;3.72;;;3.30;;
10605;SDS011;5350;42.698;23.148;2023-03-24T12:45:14;3.75;;;3.38;;
10605;SDS011;5350;42.698;23.148;2023-03-24T12:48:04;4.15;;;3.50;;
10605;SDS011;5350;42.698;23.148;2023-03-24T12:50:43;3.92;;;3.55;;
10605;SDS011;5350;42.698;23.148;2023-03-24T12:53:24;3.80;;;3.20;;
10605;SDS011;5350;42.698;23.148;2023-03-24T12:56:12;3.67;;;3.38;;
10605;SDS011;5350;42.698;23.148;2023-03-24T12:58:43;4.63;;;3.45;;
10605;SDS011;5350;42.698;23.148;2023-03-24T13:01:17;3.05;;;2.78;;
10605;SDS011;5350;42.698;23.148;2023-03-24T13:03:50;2.70;;;2.50;;
10605;SDS011;5350;42.698;23.148;2023-03-24T13:06:22;3.15;;;2.85;;
10605;SDS011;5350;42.698;23.148;2023-03-24T13:08:58;4.05;;;3.00;;
10605;SDS011;5350;42.698;23.148;2023-03-24T13:11:33;3.25;;;3.03;;
10605;SDS011;5350;42.698;23.148;2023-03-24T13:14:03;3.40;;;3.10;;
10605;SDS011;5350;42.698;23.148;2023-03-24T13:16:38;4.15;;;3.22;;
10605;SDS011;5350;42.698;23.148;2023-03-24T13:21:42;3.25;;;2.97;;
10605;SDS011;5350;42.698;23.148;2023-03-24T13:24:10;3.22;;;2.92;;
10605;SDS011;5350;42.698;23.148;2023-03-24T13:26:39;2.67;;;2.47;;
10605;SDS011;5350;42.698;23.148;2023-03-24T13:29:11;3.63;;;2.95;;
10605;SDS011;5350;42.698;23.148;2023-03-24T13:31:51;2.92;;;2.67;;
10605;SDS011;5350;42.698;23.148;2023-03-24T13:34:24;4.00;;;2.88;;
10605;SDS011;5350;42.698;23.148;2023-03-24T13:36:56;2.60;;;2.40;;
10605;SDS011;5350;42.698;23.148;2023-03-24T13:39:27;3.47;;;2.47;;
10605;SDS011;5350;42.698;23.148;2023-03-24T13:41:57;3.95;;;2.60;;
10605;SDS011;5350;42.698;23.148;2023-03-24T13:44:26;3.83;;;2.45;;
10605;SDS011;5350;42.698;23.148;2023-03-24T13:47:07;3.83;;;2.33;;
10605;SDS011;5350;42.698;23.148;2023-03-24T13:49:38;3.28;;;2.33;;
10605;SDS011;5350;42.698;23.148;2023-03-24T13:52:19;2.97;;;2.13;;
10605;SDS011;5350;42.698;23.148;2023-03-24T13:54:50;2.85;;;1.80;;
10605;SDS011;5350;42.698;23.148;2023-03-24T13:57:23;3.25;;;2.65;;
10605;SDS011;5350;42.698;23.148;2023-03-24T13:59:58;2.97;;;2.10;;
10605;SDS011;5350;42.698;23.148;2023-03-24T14:02:41;4.75;;;2.67;;
10605;SDS011;5350;42.698;23.148;2023-03-24T14:08:09;2.97;;;2.38;;
10605;SDS011;5350;42.698;23.148;2023-03-24T14:10:40;2.55;;;2.28;;
10605;SDS011;5350;42.698;23.148;2023-03-24T14:13:21;4.20;;;2.45;;
10605;SDS011;5350;42.698;23.148;2023-03-24T14:19:16;2.42;;;2.10;;
10605;SDS011;5350;42.698;23.148;2023-03-24T14:21:52;4.20;;;3.90;;
10605;SDS011;5350;42.698;23.148;2023-03-24T14:24:25;3.45;;;2.75;;
10605;SDS011;5350;42.698;23.148;2023-03-24T14:26:53;2.78;;;2.55;;
10605;SDS011;5350;42.698;23.148;2023-03-24T14:29:40;2.50;;;2.30;;
10605;SDS011;5350;42.698;23.148;2023-03-24T14:32:15;10.27;;;9.18;;
10605;SDS011;5350;42.698;23.148;2023-03-24T14:34:53;5.10;;;3.03;;
10605;SDS011;5350;42.698;23.148;2023-03-24T14:37:22;3.58;;;2.75;;
10605;SDS011;5350;42.698;23.148;2023-03-24T14:39:50;6.13;;;5.25;;
10605;SDS011;5350;42.698;23.148;2023-03-24T14:45:37;2.92;;;2.30;;
10605;SDS011;5350;42.698;23.148;2023-03-24T14:48:11;5.32;;;2.90;;
10605;SDS011;5350;42.698;23.148;2023-03-24T14:50:51;3.70;;;2.20;;
10605;SDS011;5350;42.698;23.148;2023-03-24T14:53:19;2.40;;;2.20;;
10605;SDS011;5350;42.698;23.148;2023-03-24T14:55:48;3.22;;;2.70;;
10605;SDS011;5350;42.698;23.148;2023-03-24T14:58:17;4.20;;;2.70;;
10605;SDS011;5350;42.698;23.148;2023-03-24T15:00:49;5.70;;;3.70;;
10605;SDS011;5350;42.698;23.148;2023-03-24T15:03:21;4.70;;;3.22;;
10605;SDS011;5350;42.698;23.148;2023-03-24T15:06:07;6.28;;;2.75;;
10605;SDS011;5350;42.698;23.148;2023-03-24T15:08:37;2.35;;;2.10;;
10605;SDS011;5350;42.698;23.148;2023-03-24T15:11:05;3.67;;;2.60;;
10605;SDS011;5350;42.698;23.148;2023-03-24T15:13:36;3.85;;;2.63;;
10605;SDS011;5350;42.698;23.148;2023-03-24T15:16:05;4.47;;;2.90;;
10605;SDS011;5350;42.698;23.148;2023-03-24T15:18:46;4.63;;;2.85;;
10605;SDS011;5350;42.698;23.148;2023-03-24T15:21:19;5.22;;;2.90;;
10605;SDS011;5350;42.698;23.148;2023-03-24T15:23:49;5.80;;;3.58;;